Time;durP1;ratioP1;P1;durP2;ratioP2;P2;SDS_P1;SDS_P2;PMS_P1;PMS_P2;Temp;Humidity;BMP_temperature;BMP_pressure;BME280_temperature;BME280_humidity;BME280_pressure;Samples;Min_cycle;Max_cycle;Signal;HPM_P1;HPM_P2
2023/06/17 00:00:23;;;;;;;4.30;3.85;;;22.60;56.10;;;;;;5015518;28;20210;-71
2023/06/17 00:02:50;;;;;;;4.75;3.70;;;22.60;56.10;;;;;;5032420;28;20183;-71
2023/06/17 00:05:16;;;;;;;3.70;3.40;;;22.60;56.10;;;;;;5015788;28;20187;-71
2023/06/17 00:07:43;;;;;;;4.07;3.78;;;22.60;56.10;;;;;;5031949;28;20187;-71
2023/06/17 00:10:10;;;;;;;3.70;3.40;;;22.60;56.10;;;;;;5032150;28;20206;-70
2023/06/17 00:12:37;;;;;;;3.85;3.53;;;22.60;56.10;;;;;;5024048;28;20242;-72
2023/06/17 00:15:06;;;;;;;4.30;3.90;;;22.60;56.10;;;;;;5028714;28;20318;-72
2023/06/17 00:17:32;;;;;;;4.00;3.63;;;22.60;56.10;;;;;;5010913;28;20190;-70
2023/06/17 00:20:01;;;;;;;4.15;3.85;;;22.60;56.10;;;;;;5029232;28;20218;-70
2023/06/17 00:22:29;;;;;;;4.32;3.92;;;22.60;56.10;;;;;;5026546;28;20195;-73
2023/06/17 00:24:56;;;;;;;4.03;3.72;;;22.60;56.10;;;;;;5013312;28;20204;-71
2023/06/17 00:27:22;;;;;;;4.40;4.00;;;22.60;56.10;;;;;;5025273;28;20192;-70
2023/06/17 00:29:48;;;;;;;4.38;3.97;;;22.60;56.10;;;;;;5040045;28;20221;-71
2023/06/17 00:32:14;;;;;;;4.32;3.92;;;22.60;56.10;;;;;;5011655;28;20211;-71
2023/06/17 00:34:40;;;;;;;4.53;3.80;;;22.60;56.10;;;;;;5012108;28;20287;-71
2023/06/17 00:37:06;;;;;;;4.30;3.90;;;22.60;56.10;;;;;;4995581;28;20267;-71
2023/06/17 00:39:32;;;;;;;4.35;3.88;;;22.60;56.10;;;;;;5039907;28;20243;-71
2023/06/17 00:42:00;;;;;;;4.18;3.88;;;22.50;56.10;;;;;;4997384;28;20714;-71
2023/06/17 00:44:25;;;;;;;3.85;3.55;;;22.50;56.10;;;;;;5001034;28;20184;-71
2023/06/17 00:46:54;;;;;;;4.50;4.18;;;22.50;56.10;;;;;;5021283;28;20214;-71
2023/06/17 00:49:35;;;;;;;3.95;3.55;;;22.50;56.10;;;;;;5031398;28;20211;-71
2023/06/17 00:52:07;;;;;;;4.22;3.85;;;22.50;56.10;;;;;;5011517;28;20220;-70
2023/06/17 00:54:39;;;;;;;4.57;4.18;;;22.50;56.10;;;;;;5026466;28;20186;-71
2023/06/17 00:57:13;;;;;;;3.60;3.35;;;22.50;56.10;;;;;;5027969;28;20181;-71
2023/06/17 00:59:42;;;;;;;4.10;3.67;;;22.50;56.10;;;;;;5013924;28;20219;-71
2023/06/17 01:02:10;;;;;;;4.47;4.07;;;22.50;56.20;;;;;;5019450;28;20246;-71
2023/06/17 01:04:43;;;;;;;3.78;3.47;;;22.50;56.20;;;;;;5026572;28;20624;-71
2023/06/17 01:07:40;;;;;;;4.68;3.95;;;22.50;56.10;;;;;;5020658;28;20262;-71
2023/06/17 01:10:44;;;;;;;4.18;3.88;;;22.50;56.10;;;;;;5014134;28;20709;-71
2023/06/17 01:13:14;;;;;;;4.57;4.18;;;22.50;56.10;;;;;;5003915;28;20200;-70
2023/06/17 01:15:41;;;;;;;4.05;3.50;;;22.50;56.10;;;;;;5027479;28;20183;-71
2023/06/17 01:18:08;;;;;;;3.80;3.50;;;22.50;56.10;;;;;;5030815;28;20185;-71
2023/06/17 01:20:35;;;;;;;3.97;3.67;;;22.50;56.10;;;;;;5027680;28;20204;-70
2023/06/17 01:23:05;;;;;;;4.70;4.30;;;22.50;56.20;;;;;;5029929;28;20206;-71
2023/06/17 01:25:31;;;;;;;3.90;3.50;;;22.50;56.20;;;;;;5024691;28;20192;-68
2023/06/17 01:28:13;;;;;;;4.47;4.07;;;22.50;56.20;;;;;;5022570;28;20187;-71
2023/06/17 01:30:39;;;;;;;4.30;3.90;;;22.50;56.20;;;;;;5039872;28;20215;-71
2023/06/17 01:33:05;;;;;;;4.10;3.80;;;22.50;56.20;;;;;;5030429;28;20221;-71
2023/06/17 01:35:37;;;;;;;4.32;3.90;;;22.50;56.20;;;;;;5000156;28;20227;-71
2023/06/17 01:38:43;;;;;;;4.10;3.72;;;22.50;56.20;;;;;;5010497;28;20640;-71
2023/06/17 01:41:24;;;;;;;4.15;3.85;;;22.50;56.20;;;;;;5008176;28;20203;-71
2023/06/17 01:43:53;;;;;;;4.13;3.75;;;22.50;56.20;;;;;;5026703;28;20252;-71
2023/06/17 01:46:19;;;;;;;3.58;3.35;;;22.40;56.10;;;;;;5043098;28;20665;-70
2023/06/17 01:48:45;;;;;;;4.05;3.75;;;22.50;56.20;;;;;;5002099;28;20188;-70
2023/06/17 01:51:11;;;;;;;4.05;3.75;;;22.50;56.20;;;;;;5010785;28;20214;-71
2023/06/17 01:53:37;;;;;;;4.22;3.92;;;22.50;56.20;;;;;;5043257;28;20199;-70
2023/06/17 01:56:03;;;;;;;3.97;3.67;;;22.50;56.20;;;;;;5033477;28;20198;-71
2023/06/17 01:58:29;;;;;;;3.95;3.65;;;22.50;56.20;;;;;;5003781;28;20192;-71
2023/06/17 02:00:54;;;;;;;4.13;3.83;;;22.40;56.10;;;;;;5031980;28;20248;-72
2023/06/17 02:03:20;;;;;;;4.47;3.72;;;22.40;56.20;;;;;;5009796;28;20650;-72
2023/06/17 02:05:46;;;;;;;4.10;3.72;;;22.40;56.20;;;;;;5018008;28;20218;-70
2023/06/17 02:08:14;;;;;;;4.05;3.75;;;22.40;56.20;;;;;;5030947;28;20184;-71
2023/06/17 02:10:40;;;;;;;4.00;3.70;;;22.40;56.20;;;;;;5013198;28;20231;-71
2023/06/17 02:13:09;;;;;;;3.78;3.47;;;22.40;56.20;;;;;;5014375;28;20188;-71
2023/06/17 02:15:35;;;;;;;3.53;3.22;;;22.40;56.20;;;;;;5022675;28;20601;-71
2023/06/17 02:18:01;;;;;;;3.80;3.50;;;22.40;56.20;;;;;;4999763;28;20652;-71
2023/06/17 02:20:27;;;;;;;4.15;3.85;;;22.40;56.20;;;;;;5014064;28;20207;-71
2023/06/17 02:22:53;;;;;;;3.83;3.53;;;22.40;56.20;;;;;;5031004;28;20290;-71
2023/06/17 02:25:21;;;;;;;4.05;3.75;;;22.40;56.20;;;;;;5006845;28;20199;-72
2023/06/17 02:27:48;;;;;;;3.75;3.45;;;22.40;56.20;;;;;;5030559;28;20191;-71
2023/06/17 02:30:14;;;;;;;3.75;3.45;;;22.40;56.20;;;;;;5016948;28;20207;-71
2023/06/17 02:32:40;;;;;;;3.72;3.42;;;22.40;56.20;;;;;;5001923;28;20180;-71
2023/06/17 02:35:07;;;;;;;4.15;3.85;;;22.40;56.20;;;;;;5032667;28;20194;-71
2023/06/17 02:37:33;;;;;;;4.82;4.40;;;22.40;56.20;;;;;;5044178;28;20180;-71
2023/06/17 02:39:59;;;;;;;3.60;3.30;;;22.40;56.20;;;;;;5031572;28;20211;-70
2023/06/17 02:42:25;;;;;;;4.45;3.83;;;22.40;56.20;;;;;;5003917;28;20184;-70
2023/06/17 02:44:50;;;;;;;3.83;3.53;;;22.40;56.20;;;;;;5005732;28;20241;-71
2023/06/17 02:47:16;;;;;;;3.38;3.08;;;22.40;56.20;;;;;;5009129;28;20191;-71
2023/06/17 02:49:42;;;;;;;3.85;3.55;;;22.40;56.20;;;;;;5016872;28;20215;-70
2023/06/17 02:52:08;;;;;;;3.95;3.55;;;22.40;56.20;;;;;;5016697;28;20218;-71
2023/06/17 02:54:34;;;;;;;3.70;3.40;;;22.40;56.20;;;;;;5017043;28;20278;-70
2023/06/17 02:57:04;;;;;;;3.58;3.30;;;22.40;56.20;;;;;;5008990;28;20183;-71
2023/06/17 02:59:33;;;;;;;3.70;3.40;;;22.40;56.20;;;;;;5049872;28;20214;-71
2023/06/17 03:01:59;;;;;;;3.80;3.50;;;22.40;56.20;;;;;;5024802;28;20196;-71
2023/06/17 03:04:25;;;;;;;4.35;3.95;;;22.40;56.30;;;;;;5028428;28;20656;-70
2023/06/17 03:06:53;;;;;;;4.38;3.97;;;22.40;56.20;;;;;;4996806;28;20188;-71
2023/06/17 03:09:19;;;;;;;3.92;3.63;;;22.40;56.20;;;;;;5004214;28;20219;-70
2023/06/17 03:11:45;;;;;;;3.72;3.42;;;22.40;56.20;;;;;;5012690;28;20203;-71
2023/06/17 03:14:12;;;;;;;3.47;3.20;;;22.40;56.20;;;;;;5029669;28;20211;-71
2023/06/17 03:16:40;;;;;;;4.03;3.67;;;22.30;56.10;;;;;;5027976;28;20231;-70
2023/06/17 03:19:06;;;;;;;3.90;3.45;;;22.30;56.20;;;;;;5022386;28;20212;-71
2023/06/17 03:21:39;;;;;;;3.75;3.45;;;22.40;56.90;;;;;;5027043;28;20184;-70
2023/06/17 03:24:05;;;;;;;3.90;3.60;;;22.40;56.30;;;;;;5024603;28;20199;-70
2023/06/17 03:26:32;;;;;;;3.85;3.55;;;22.30;56.20;;;;;;5043458;28;20243;-71
2023/06/17 03:28:57;;;;;;;3.90;3.60;;;22.30;56.20;;;;;;5029932;28;20310;-70
2023/06/17 03:31:24;;;;;;;4.18;3.78;;;22.30;56.20;;;;;;5029104;28;20687;-71
2023/06/17 03:33:52;;;;;;;3.78;3.47;;;22.30;56.20;;;;;;5024272;28;20188;-71
2023/06/17 03:36:19;;;;;;;3.42;3.22;;;22.30;56.20;;;;;;5024315;28;20565;-71
2023/06/17 03:38:46;;;;;;;3.80;3.50;;;22.30;56.30;;;;;;5024223;28;20191;-70
2023/06/17 03:41:12;;;;;;;4.00;3.70;;;22.30;56.30;;;;;;5024218;28;20195;-72
2023/06/17 03:43:38;;;;;;;3.97;3.67;;;22.30;56.20;;;;;;5012983;28;20191;-70
2023/06/17 03:46:04;;;;;;;3.80;3.50;;;22.30;56.30;;;;;;5005851;28;20200;-70
2023/06/17 03:48:30;;;;;;;3.70;3.40;;;22.30;56.30;;;;;;5015626;28;20183;-70
2023/06/17 03:50:56;;;;;;;4.07;3.72;;;22.30;56.30;;;;;;5015200;28;20207;-70
2023/06/17 03:53:21;;;;;;;4.18;3.80;;;22.30;56.30;;;;;;5016822;28;20184;-70
2023/06/17 03:55:49;;;;;;;3.67;3.38;;;22.30;56.30;;;;;;5024331;28;20198;-72
2023/06/17 03:58:15;;;;;;;3.80;3.50;;;22.30;56.30;;;;;;5048551;28;20183;-71
2023/06/17 04:00:42;;;;;;;3.60;3.30;;;22.30;56.30;;;;;;5023501;28;20211;-71
2023/06/17 04:03:08;;;;;;;4.13;3.75;;;22.30;56.30;;;;;;5015338;28;20725;-71
2023/06/17 04:05:34;;;;;;;3.90;3.60;;;22.30;56.30;;;;;;5015640;28;20203;-71
2023/06/17 04:08:02;;;;;;;3.50;3.20;;;22.30;56.30;;;;;;5032235;28;20187;-71
2023/06/17 04:10:29;;;;;;;3.58;3.33;;;22.30;56.30;;;;;;5015174;28;20700;-70
2023/06/17 04:12:55;;;;;;;3.60;3.30;;;22.30;56.30;;;;;;5015467;28;20198;-71
2023/06/17 04:15:21;;;;;;;3.60;3.30;;;22.30;56.30;;;;;;5015346;28;20191;-71
2023/06/17 04:17:46;;;;;;;4.20;3.90;;;22.30;56.30;;;;;;5015360;28;20184;-71
2023/06/17 04:20:12;;;;;;;3.42;3.22;;;22.20;56.20;;;;;;5006930;28;20702;-70
2023/06/17 04:22:43;;;;;;;3.67;3.38;;;22.30;56.30;;;;;;5031824;28;20190;-71
2023/06/17 04:25:12;;;;;;;3.58;3.28;;;22.30;56.70;;;;;;5007097;28;20287;-70
2023/06/17 04:27:41;;;;;;;3.72;3.42;;;22.30;56.30;;;;;;5001259;28;20188;-71
2023/06/17 04:30:09;;;;;;;3.67;3.38;;;22.30;56.30;;;;;;5016447;28;20225;-70
2023/06/17 04:33:30;;;;;;;4.05;3.75;;;22.30;56.30;;;;;;5026878;28;20200;-72
2023/06/17 04:35:57;;;;;;;3.75;3.45;;;22.30;56.30;;;;;;5014811;28;20195;-70
2023/06/17 04:38:24;;;;;;;4.20;3.80;;;22.20;56.20;;;;;;5031599;28;20187;-72
2023/06/17 04:40:53;;;;;;;3.92;3.63;;;22.20;56.20;;;;;;5011718;28;20195;-71
2023/06/17 04:43:22;;;;;;;3.60;3.30;;;22.20;56.20;;;;;;5015239;28;20274;-71
2023/06/17 04:45:49;;;;;;;3.80;3.50;;;22.20;56.20;;;;;;5031163;28;20187;-72
2023/06/17 04:48:15;;;;;;;3.85;3.55;;;22.30;56.30;;;;;;5028412;28;20198;-71
2023/06/17 04:50:43;;;;;;;3.80;3.50;;;22.20;56.20;;;;;;5019255;28;20254;-72
2023/06/17 04:53:10;;;;;;;3.92;3.63;;;22.20;56.20;;;;;;5013472;28;20187;-71
2023/06/17 04:55:37;;;;;;;3.75;3.45;;;22.20;56.20;;;;;;5014852;28;20180;-71
2023/06/17 04:58:05;;;;;;;3.90;3.60;;;22.20;56.20;;;;;;4999353;28;20254;-72
2023/06/17 05:00:50;;;;;;;3.80;3.50;;;22.20;56.20;;;;;;5023459;28;20212;-72
2023/06/17 05:03:19;;;;;;;3.92;3.63;;;22.20;56.30;;;;;;5027490;28;20191;-71
2023/06/17 05:05:46;;;;;;;3.83;3.53;;;22.20;56.30;;;;;;5009887;28;20227;-71
2023/06/17 05:08:12;;;;;;;3.85;3.50;;;22.20;56.30;;;;;;5014742;28;20198;-70
2023/06/17 05:10:38;;;;;;;4.30;3.60;;;22.20;56.30;;;;;;5014539;28;20203;-71
2023/06/17 05:13:05;;;;;;;3.70;3.40;;;22.20;56.30;;;;;;5031464;28;20176;-71
2023/06/17 05:15:33;;;;;;;3.63;3.33;;;22.20;56.30;;;;;;5009717;28;20181;-72
2023/06/17 05:17:58;;;;;;;3.67;3.38;;;22.20;56.30;;;;;;5017827;28;20231;-71
2023/06/17 05:20:24;;;;;;;5.38;3.80;;;22.20;56.40;;;;;;5017580;28;20199;-71
2023/06/17 05:22:50;;;;;;;4.13;3.83;;;22.20;56.40;;;;;;5016883;28;20183;-72
2023/06/17 05:25:16;;;;;;;4.13;3.45;;;22.20;56.40;;;;;;5043297;28;20198;-72
2023/06/17 05:27:43;;;;;;;4.10;3.70;;;22.20;56.40;;;;;;5007504;28;20179;-71
2023/06/17 05:30:10;;;;;;;4.00;3.60;;;22.20;56.40;;;;;;5026065;28;20212;-71
2023/06/17 05:32:38;;;;;;;3.80;3.50;;;22.20;56.40;;;;;;5001405;28;20211;-71
2023/06/17 05:35:04;;;;;;;3.83;3.53;;;22.20;56.40;;;;;;5031285;28;20184;-71
2023/06/17 05:37:32;;;;;;;3.78;3.47;;;22.20;56.50;;;;;;5004390;28;20257;-71
2023/06/17 05:39:58;;;;;;;3.47;3.17;;;22.20;56.50;;;;;;5025452;28;20203;-75
2023/06/17 05:42:24;;;;;;;3.63;3.33;;;22.20;56.50;;;;;;5020712;28;20175;-72
2023/06/17 05:44:50;;;;;;;3.63;3.33;;;22.20;56.50;;;;;;5029157;28;20183;-71
2023/06/17 05:47:16;;;;;;;3.55;3.25;;;22.30;56.60;;;;;;5010266;28;20183;-72
2023/06/17 05:49:43;;;;;;;3.72;3.42;;;22.30;56.60;;;;;;5025434;28;20265;-72
2023/06/17 05:52:10;;;;;;;3.70;3.40;;;22.30;56.60;;;;;;5031460;28;20238;-72
2023/06/17 05:54:38;;;;;;;3.92;3.63;;;22.30;56.60;;;;;;5012475;28;20262;-72
2023/06/17 05:57:05;;;;;;;3.42;3.13;;;22.30;56.60;;;;;;5038141;28;20187;-72
2023/06/17 05:59:31;;;;;;;3.47;3.17;;;22.30;56.60;;;;;;5009821;28;20195;-71
2023/06/17 06:01:57;;;;;;;3.30;3.00;;;22.30;56.60;;;;;;5009301;28;20207;-73
2023/06/17 06:04:24;;;;;;;3.60;3.30;;;22.30;56.60;;;;;;5045529;28;20290;-72
2023/06/17 06:06:50;;;;;;;3.80;3.50;;;22.30;56.60;;;;;;5017149;28;20184;-72
2023/06/17 06:09:16;;;;;;;4.10;3.63;;;22.30;56.60;;;;;;5033691;28;20229;-72
2023/06/17 06:11:41;;;;;;;4.22;3.85;;;22.30;56.60;;;;;;5007909;28;20210;-72
2023/06/17 06:14:08;;;;;;;3.40;3.20;;;22.40;56.70;;;;;;5015011;28;20199;-72
2023/06/17 06:16:34;;;;;;;3.60;3.30;;;22.30;56.70;;;;;;5027605;28;20718;-71
2023/06/17 06:18:59;;;;;;;3.90;3.60;;;22.40;56.80;;;;;;5015876;28;20207;-71
2023/06/17 06:21:25;;;;;;;3.75;3.45;;;22.30;56.70;;;;;;5005274;28;20183;-71
2023/06/17 06:23:52;;;;;;;3.65;3.35;;;22.30;56.70;;;;;;5019450;28;20210;-71
2023/06/17 06:26:20;;;;;;;3.60;3.30;;;22.40;56.80;;;;;;5037444;28;20706;-71
2023/06/17 06:28:47;;;;;;;3.92;3.63;;;22.40;56.80;;;;;;5008571;28;20275;-71
2023/06/17 06:31:13;;;;;;;4.43;3.65;;;22.30;56.70;;;;;;4997597;28;20207;-72
2023/06/17 06:33:39;;;;;;;3.67;3.40;;;22.40;56.70;;;;;;5010924;28;20198;-71
2023/06/17 06:36:09;;;;;;;3.70;3.40;;;22.40;56.80;;;;;;5028577;28;20183;-71
2023/06/17 06:38:36;;;;;;;3.55;3.25;;;22.30;56.70;;;;;;5026715;28;20176;-72
2023/06/17 06:41:02;;;;;;;3.53;3.22;;;22.40;56.80;;;;;;4997614;28;20184;-71
2023/06/17 06:43:29;;;;;;;3.72;3.42;;;22.40;56.80;;;;;;5033362;28;20207;-72
2023/06/17 06:45:59;;;;;;;3.65;3.35;;;22.40;56.70;;;;;;5030336;28;20184;-73
2023/06/17 06:48:26;;;;;;;3.60;3.30;;;22.40;56.80;;;;;;5029781;28;20294;-71
2023/06/17 06:50:52;;;;;;;3.53;3.22;;;22.40;56.80;;;;;;5021765;28;20228;-72
2023/06/17 06:53:21;;;;;;;3.90;3.60;;;22.40;56.80;;;;;;5038142;28;20188;-71
2023/06/17 06:55:49;;;;;;;3.70;3.40;;;22.40;56.80;;;;;;5011836;28;20379;-72
2023/06/17 06:58:16;;;;;;;3.40;3.20;;;22.40;56.80;;;;;;5015201;28;20186;-72
2023/06/17 07:00:42;;;;;;;3.42;3.13;;;22.40;56.70;;;;;;5010303;28;20199;-71
2023/06/17 07:03:08;;;;;;;3.53;3.30;;;22.40;56.80;;;;;;5016258;28;20183;-69
2023/06/17 07:05:33;;;;;;;3.47;3.10;;;22.40;56.80;;;;;;5021663;28;20188;-71
2023/06/17 07:08:02;;;;;;;5.05;3.38;;;22.50;56.80;;;;;;5018191;28;20192;-71
2023/06/17 07:10:28;;;;;;;3.95;3.60;;;22.40;56.70;;;;;;5016069;28;20210;-71
2023/06/17 07:12:55;;;;;;;3.35;3.05;;;22.40;56.70;;;;;;5009703;28;20184;-71
2023/06/17 07:15:22;;;;;;;3.92;3.53;;;22.40;56.80;;;;;;5015315;28;20666;-71
2023/06/17 07:17:49;;;;;;;3.65;3.35;;;22.40;56.70;;;;;;5027097;28;20540;-70
2023/06/17 07:20:15;;;;;;;3.65;3.35;;;22.40;56.70;;;;;;5012453;28;20256;-71
2023/06/17 07:22:42;;;;;;;3.88;3.47;;;22.40;56.70;;;;;;5026009;28;20267;-71
2023/06/17 07:25:09;;;;;;;3.75;3.45;;;22.40;56.80;;;;;;5029862;28;20194;-71
2023/06/17 07:27:35;;;;;;;3.83;3.50;;;22.40;56.80;;;;;;5012172;28;20187;-71
2023/06/17 07:30:01;;;;;;;3.60;3.30;;;22.40;56.70;;;;;;5020996;28;20216;-71
2023/06/17 07:32:27;;;;;;;6.00;3.97;;;22.40;56.60;;;;;;5020625;28;20208;-74
2023/06/17 07:34:55;;;;;;;3.40;3.20;;;22.40;56.70;;;;;;5003569;28;20274;-71
2023/06/17 07:37:21;;;;;;;3.45;3.25;;;22.50;56.80;;;;;;5022074;28;20196;-71
2023/06/17 07:39:48;;;;;;;4.63;3.65;;;22.50;57.30;;;;;;5012451;28;20208;-70
2023/06/17 07:42:18;;;;;;;3.90;3.50;;;22.50;56.70;;;;;;5012624;28;20188;-70
2023/06/17 07:44:45;;;;;;;4.13;3.80;;;22.50;56.70;;;;;;5012487;28;20207;-72
2023/06/17 07:47:10;;;;;;;4.30;3.60;;;22.50;56.70;;;;;;5025971;28;20203;-71
2023/06/17 07:49:36;;;;;;;3.92;3.30;;;22.50;56.60;;;;;;5012434;28;20696;-72
2023/06/17 07:52:03;;;;;;;3.90;3.42;;;22.50;56.50;;;;;;5041854;28;20214;-71
2023/06/17 07:54:30;;;;;;;4.00;3.60;;;22.50;56.60;;;;;;5012599;28;20235;-71
2023/06/17 07:56:56;;;;;;;4.50;3.50;;;22.50;56.50;;;;;;5027548;28;20179;-71
2023/06/17 07:59:22;;;;;;;4.05;3.70;;;22.50;56.50;;;;;;5005312;28;20252;-71
2023/06/17 08:01:48;;;;;;;3.45;3.17;;;22.50;56.40;;;;;;5004027;28;20305;-70
2023/06/17 08:04:13;;;;;;;3.40;3.20;;;22.50;56.50;;;;;;5029101;28;20192;-70
2023/06/17 08:06:40;;;;;;;3.58;3.28;;;22.50;56.50;;;;;;5015154;28;20252;-71
2023/06/17 08:09:06;;;;;;;3.92;3.47;;;22.50;56.50;;;;;;5023624;28;20222;-70
2023/06/17 08:11:32;;;;;;;4.20;3.80;;;22.50;56.50;;;;;;5031538;28;20206;-70
2023/06/17 08:13:58;;;;;;;3.88;3.58;;;22.60;56.50;;;;;;5008398;28;20176;-71
2023/06/17 08:16:24;;;;;;;4.18;3.85;;;22.60;56.50;;;;;;5006175;28;20651;-71
2023/06/17 08:18:49;;;;;;;4.00;3.65;;;22.60;56.50;;;;;;5020107;28;20568;-71
2023/06/17 08:21:15;;;;;;;4.03;3.65;;;22.60;56.40;;;;;;5022524;28;20187;-70
2023/06/17 08:23:41;;;;;;;3.92;3.63;;;22.60;56.20;;;;;;4998645;28;20225;-72
2023/06/17 08:26:07;;;;;;;3.78;3.47;;;22.60;56.20;;;;;;5011815;28;20198;-71
2023/06/17 08:28:33;;;;;;;4.32;3.67;;;22.60;56.30;;;;;;5024970;28;20191;-71
2023/06/17 08:30:58;;;;;;;3.80;3.50;;;22.60;56.40;;;;;;5011424;28;20207;-71
2023/06/17 08:33:25;;;;;;;3.67;3.35;;;22.60;56.20;;;;;;5031508;28;20237;-71
2023/06/17 08:35:50;;;;;;;3.95;3.65;;;22.60;56.30;;;;;;5011953;28;20188;-72
2023/06/17 08:38:16;;;;;;;3.90;3.60;;;22.60;56.20;;;;;;5020821;28;20186;-72
2023/06/17 08:40:45;;;;;;;4.88;3.80;;;22.70;56.30;;;;;;5003338;28;20204;-73
2023/06/17 08:43:15;;;;;;;3.95;3.60;;;22.60;56.20;;;;;;5023800;28;20180;-71
2023/06/17 08:45:42;;;;;;;4.05;3.70;;;22.70;56.30;;;;;;5012429;28;20190;-71
2023/06/17 08:48:07;;;;;;;3.85;3.55;;;22.70;56.20;;;;;;5027684;28;20180;-71
2023/06/17 08:50:33;;;;;;;4.30;3.90;;;22.70;56.20;;;;;;5019800;28;20227;-71
2023/06/17 08:53:01;;;;;;;3.88;3.58;;;22.70;56.20;;;;;;5019806;28;20274;-72
2023/06/17 08:55:28;;;;;;;4.20;3.90;;;22.70;56.10;;;;;;5021650;28;20676;-72
2023/06/17 08:57:55;;;;;;;3.83;3.53;;;22.70;56.10;;;;;;5023225;28;20183;-71
2023/06/17 09:00:21;;;;;;;3.78;3.47;;;22.70;55.90;;;;;;5039170;28;20262;-72
2023/06/17 09:02:47;;;;;;;3.80;3.50;;;22.70;55.80;;;;;;5027377;28;20283;-71
2023/06/17 09:05:13;;;;;;;3.60;3.40;;;22.70;55.90;;;;;;5011189;28;20203;-73
2023/06/17 09:07:40;;;;;;;3.95;3.65;;;22.70;56.60;;;;;;5031299;28;20298;-72
2023/06/17 09:10:08;;;;;;;5.07;4.13;;;22.70;56.00;;;;;;5031134;28;20218;-71
2023/06/17 09:12:38;;;;;;;4.03;3.67;;;22.70;56.00;;;;;;5022578;28;20227;-71
2023/06/17 09:15:07;;;;;;;3.42;3.22;;;22.70;55.90;;;;;;5039361;28;20680;-71
2023/06/17 09:17:36;;;;;;;4.03;3.67;;;22.70;55.90;;;;;;5017296;28;20182;-69
2023/06/17 09:20:16;;;;;;;3.85;3.55;;;22.70;55.90;;;;;;5032201;28;20207;-72
2023/06/17 09:22:47;;;;;;;4.30;4.00;;;22.70;55.90;;;;;;5023418;28;20187;-73
2023/06/17 09:25:15;;;;;;;3.80;3.50;;;22.70;56.00;;;;;;5031429;28;20207;-70
2023/06/17 09:27:48;;;;;;;3.53;3.30;;;22.70;56.20;;;;;;5039466;28;20187;-72
2023/06/17 09:30:15;;;;;;;3.97;3.67;;;22.70;56.20;;;;;;5005644;28;20258;-74
2023/06/17 09:32:46;;;;;;;4.13;3.80;;;22.70;56.10;;;;;;5008822;28;20301;-71
2023/06/17 09:35:14;;;;;;;3.78;3.42;;;22.70;55.90;;;;;;5038409;28;20176;-75
2023/06/17 09:37:49;;;;;;;3.58;3.28;;;22.70;55.80;;;;;;5019649;28;20242;-72
2023/06/17 09:40:15;;;;;;;3.72;3.42;;;22.70;55.90;;;;;;5005106;28;20234;-70
2023/06/17 09:42:44;;;;;;;3.65;3.35;;;22.70;55.60;;;;;;5022843;28;20643;-71
2023/06/17 09:45:19;;;;;;;3.72;3.42;;;22.80;55.80;;;;;;5031026;28;20207;-71
2023/06/17 09:47:55;;;;;;;3.33;3.03;;;22.70;55.50;;;;;;5001995;28;20183;-71
2023/06/17 09:50:25;;;;;;;3.78;3.40;;;22.80;55.70;;;;;;5010687;28;20257;-71
2023/06/17 09:52:55;;;;;;;3.65;3.35;;;22.80;55.80;;;;;;5022973;28;20233;-72
2023/06/17 09:55:23;;;;;;;3.40;3.10;;;22.70;55.80;;;;;;5018971;28;20214;-71
2023/06/17 09:57:53;;;;;;;4.13;3.50;;;22.80;55.90;;;;;;5022534;28;20187;-71
2023/06/17 10:00:28;;;;;;;3.58;3.28;;;22.80;55.80;;;;;;5026164;28;20196;-73
2023/06/17 10:02:54;;;;;;;4.63;3.90;;;22.80;56.10;;;;;;5031208;28;20192;-71
2023/06/17 10:05:21;;;;;;;3.70;3.40;;;22.80;55.90;;;;;;5025832;28;20196;-71
2023/06/17 10:07:49;;;;;;;3.72;3.42;;;22.80;55.90;;;;;;5013294;28;20188;-71
2023/06/17 10:10:18;;;;;;;3.88;3.58;;;22.80;56.00;;;;;;5014260;28;20214;-71
2023/06/17 10:12:45;;;;;;;3.30;3.05;;;22.80;56.00;;;;;;5030863;28;20215;-72
2023/06/17 10:15:14;;;;;;;4.05;3.75;;;22.80;56.00;;;;;;5027227;28;20184;-71
2023/06/17 10:17:44;;;;;;;3.80;3.45;;;22.80;55.90;;;;;;5024511;28;20176;-73
2023/06/17 10:20:13;;;;;;;3.72;3.42;;;22.80;55.90;;;;;;5006177;28;20231;-71
2023/06/17 10:22:40;;;;;;;3.80;3.50;;;22.80;55.80;;;;;;5017575;28;20194;-67
2023/06/17 10:25:09;;;;;;;3.72;3.42;;;22.80;55.60;;;;;;5030620;28;20204;-72
2023/06/17 10:27:35;;;;;;;3.90;3.60;;;22.80;55.70;;;;;;5013960;28;20196;-70
2023/06/17 10:30:21;;;;;;;3.90;3.60;;;22.80;55.60;;;;;;5009266;28;20212;-71
2023/06/17 10:32:56;;;;;;;3.80;3.50;;;22.90;55.50;;;;;;5025834;28;20210;-71
2023/06/17 10:35:22;;;;;;;3.70;3.28;;;22.80;55.50;;;;;;5034024;28;20187;-70
2023/06/17 10:37:50;;;;;;;4.25;3.78;;;22.80;55.80;;;;;;5033685;28;20187;-70
2023/06/17 10:40:26;;;;;;;3.80;3.50;;;22.80;55.50;;;;;;5017127;28;20241;-70
2023/06/17 10:43:02;;;;;;;3.70;3.40;;;22.90;55.80;;;;;;5009930;28;20254;-71
2023/06/17 10:45:30;;;;;;;3.72;3.42;;;22.80;55.60;;;;;;4999580;28;20250;-72
2023/06/17 10:48:19;;;;;;;3.72;3.15;;;22.90;55.80;;;;;;5028610;28;20674;-71
2023/06/17 10:50:51;;;;;;;3.22;3.03;;;22.90;55.50;;;;;;5005660;28;20295;-72
2023/06/17 10:53:17;;;;;;;3.60;3.30;;;22.90;55.40;;;;;;5014369;28;20180;-73
2023/06/17 10:55:45;;;;;;;4.07;3.67;;;22.90;55.50;;;;;;5021408;28;20266;-71
2023/06/17 10:58:11;;;;;;;3.97;3.60;;;22.90;55.50;;;;;;5029405;28;20183;-71
2023/06/17 11:00:37;;;;;;;3.55;3.28;;;22.90;55.50;;;;;;5033459;28;20203;-70
2023/06/17 11:03:04;;;;;;;4.03;3.58;;;22.90;55.70;;;;;;5041249;28;20180;-71
2023/06/17 11:05:35;;;;;;;4.00;3.70;;;22.90;55.60;;;;;;5008376;28;20290;-69
2023/06/17 11:08:05;;;;;;;4.30;3.90;;;22.90;55.80;;;;;;5013362;28;20191;-69
2023/06/17 11:10:31;;;;;;;4.07;3.55;;;22.90;55.80;;;;;;5013990;28;20212;-71
2023/06/17 11:12:57;;;;;;;4.03;3.63;;;22.90;55.70;;;;;;5019777;28;20262;-70
2023/06/17 11:15:24;;;;;;;3.92;3.63;;;22.90;55.80;;;;;;5031358;28;20190;-71
2023/06/17 11:18:03;;;;;;;4.43;3.60;;;22.90;55.80;;;;;;5025872;28;20183;-72
2023/06/17 11:20:35;;;;;;;3.92;3.53;;;22.90;56.00;;;;;;5001961;28;20733;-71
2023/06/17 11:23:04;;;;;;;3.80;3.40;;;22.90;56.00;;;;;;5031962;28;20624;-71
2023/06/17 11:25:31;;;;;;;3.92;3.45;;;22.90;55.70;;;;;;5029271;28;20183;-70
2023/06/17 11:27:57;;;;;;;4.95;3.92;;;22.90;55.80;;;;;;5032105;28;20560;-71
2023/06/17 11:30:26;;;;;;;3.90;3.60;;;22.90;55.70;;;;;;5041078;28;20266;-71
2023/06/17 11:32:52;;;;;;;4.45;4.05;;;22.90;55.90;;;;;;5024536;28;20258;-72
2023/06/17 11:35:18;;;;;;;3.67;3.38;;;22.90;55.50;;;;;;5020944;28;20215;-72
2023/06/17 11:37:46;;;;;;;3.42;3.13;;;22.90;55.50;;;;;;5012671;28;20196;-72
2023/06/17 11:40:13;;;;;;;4.40;4.00;;;22.90;55.50;;;;;;5031617;28;20243;-71
2023/06/17 11:42:40;;;;;;;3.70;3.47;;;22.90;55.50;;;;;;5010038;28;20180;-71
2023/06/17 11:45:07;;;;;;;4.28;3.85;;;22.90;55.60;;;;;;5016053;28;20279;-72
2023/06/17 11:47:35;;;;;;;4.18;3.83;;;22.90;56.30;;;;;;5024994;28;20188;-72
2023/06/17 11:50:05;;;;;;;4.00;3.70;;;22.90;55.60;;;;;;5024256;28;20240;-73
2023/06/17 11:52:33;;;;;;;4.00;3.63;;;22.90;55.70;;;;;;5002462;28;20222;-72
2023/06/17 11:54:59;;;;;;;4.30;3.88;;;22.90;55.80;;;;;;5012862;28;20521;-71
2023/06/17 11:57:26;;;;;;;4.45;4.10;;;22.90;55.90;;;;;;5016819;28;20627;-71
2023/06/17 11:59:58;;;;;;;3.95;3.50;;;22.90;56.40;;;;;;5027977;28;20204;-72
2023/06/17 12:02:27;;;;;;;4.35;3.95;;;22.90;55.80;;;;;;5002771;28;20603;-71
2023/06/17 12:04:54;;;;;;;4.22;3.80;;;22.90;55.90;;;;;;5038654;28;20198;-71
2023/06/17 12:07:20;;;;;;;3.70;3.40;;;22.90;55.80;;;;;;5021777;28;20558;-71
2023/06/17 12:09:51;;;;;;;4.50;4.10;;;22.90;55.90;;;;;;5015569;28;20210;-71
2023/06/17 12:12:32;;;;;;;4.88;3.88;;;23.00;55.60;;;;;;5006340;28;20214;-71
2023/06/17 12:15:12;;;;;;;4.20;3.80;;;23.00;55.60;;;;;;5008972;28;20201;-69
2023/06/17 12:17:44;;;;;;;3.95;3.63;;;23.00;55.60;;;;;;5042130;28;20211;-72
2023/06/17 12:20:19;;;;;;;4.40;4.00;;;23.00;55.80;;;;;;5007151;28;20710;-71
2023/06/17 12:22:48;;;;;;;4.93;3.92;;;22.90;55.80;;;;;;4998117;28;20286;-72
2023/06/17 12:25:14;;;;;;;4.30;3.90;;;22.90;55.80;;;;;;5032834;28;20188;-71
2023/06/17 12:27:42;;;;;;;3.92;3.63;;;22.90;55.90;;;;;;5030718;28;20241;-71
2023/06/17 12:30:10;;;;;;;4.00;3.60;;;22.90;56.00;;;;;;5027561;28;20237;-69
2023/06/17 12:32:37;;;;;;;3.95;3.65;;;22.90;56.00;;;;;;5013152;28;20210;-71
2023/06/17 12:35:03;;;;;;;3.97;3.67;;;22.90;56.10;;;;;;5025381;28;20183;-72
2023/06/17 12:37:33;;;;;;;4.30;3.90;;;22.90;56.00;;;;;;5027530;28;20210;-71
2023/06/17 12:40:03;;;;;;;4.28;3.97;;;22.90;55.90;;;;;;5031485;28;20586;-71
2023/06/17 12:42:29;;;;;;;4.20;3.75;;;22.90;55.70;;;;;;5028757;28;20198;-71
2023/06/17 12:44:55;;;;;;;4.10;3.70;;;23.00;55.90;;;;;;5037547;28;20643;-71
2023/06/17 12:47:23;;;;;;;4.25;3.85;;;22.90;55.60;;;;;;5021596;28;20195;-71
2023/06/17 12:49:49;;;;;;;4.38;3.97;;;23.00;55.70;;;;;;5018246;28;20215;-71
2023/06/17 12:52:15;;;;;;;5.25;3.80;;;23.00;55.60;;;;;;5019540;28;20195;-71